Terminal Aerodrome Forecast
Issued by NWS El Paso, TX

Home | Current Version | Previous Version | Text Only | Print | Product List | Glossary On
Versions: 1 2 3 4 5 6 7 8 9 10 11 12 13
000
FTUS44 KEPZ 311700
TAFELP
TAF
KELP 311739Z 3118/0118 11012KT P6SM SCT250
     FM312200 12013G19KT P6SM FEW080 SCT250
     FM010500 11008KT P6SM VCSH SCT050 BKN200
     FM011500 15006KT P6SM FEW050 SCT080 BKN200=

USA.gov is the U.S. government's official web portal to all federal, state and local government web resources and services.